KPOU

Hudson Valley Regional Airport

Poughkeepsie, New York, USA
METAR KPOU 162353Z 35010KT 5SM UP BR BKN008 OVC031 02/01 A2987 RMK AO2 RAE51UPB51 SLP113 P0008 60015 I1001 I6001 T00170006 10022 20017 56004
Observed Flight Rules
Dec-16 @ 23:53 UTC (56 minutes ago) Instrument Flight Rules
Wind Visibility Clouds Conditions
350° at 10 knots 5 miles
  • Broken at 800' AGL
  • Overcast at 3,100' AGL
  • Mist
  • Unknown precipitation
Temperatures Readings Precipitation
Current 2°C / 36°F
Dewpoint 1°C / 34°F
Humidity 93%
Altimeter 29.87" Hg
Pressure 1011.3 hPa
Elevation 46
Current Rain 0.08
METAR KPOU 162353Z 35010KT 5SM UP BR BKN008 OVC031 02/01 A2987 RMK AO2 RAE51UPB51 SLP113 P0008 60015 I1001 I6001 T00170006 10022 20017 56004
Observed Flight Rules
Dec-16 @ 23:53 UTC
(56 minutes ago)
IFR
Wind Visibility
350° at 10 knots 5 miles
Clouds
  • Broken at 800' AGL
  • Overcast at 3,100' AGL
Conditions
  • Mist
  • Unknown precipitation
Temperature Dewpoint
2°C / 36°F 1°C / 34°F
Humidity Altimeter Pressure
93% 29.87" Hg 1011.3 hPa
Current Rain
0.08